Time;durP1;ratioP1;P1;durP2;ratioP2;P2;SDS_P1;SDS_P2;PMS_P1;PMS_P2;Temp;Humidity;BMP_temperature;BMP_pressure;BME280_temperature;BME280_humidity;BME280_pressure;Samples;Min_cycle;Max_cycle;Signal;HPM_P1;HPM_P2
2022/09/14 00:01:12;;;;;;;3.17;0.55;;;17.10;99.90;;;;;;5031800;28;20573;-70
2022/09/14 00:03:38;;;;;;;1.20;0.17;;;17.00;99.90;;;;;;5030534;28;20042;-71
2022/09/14 00:06:06;;;;;;;4.80;0.38;;;17.10;99.90;;;;;;5037241;28;20041;-72
2022/09/14 00:08:32;;;;;;;4.20;0.25;;;17.00;99.90;;;;;;5027437;28;20124;-71
2022/09/14 00:11:02;;;;;;;2.97;0.38;;;17.00;99.90;;;;;;5026884;28;20087;-72
2022/09/14 00:13:28;;;;;;;1.13;0.20;;;17.00;99.90;;;;;;5024862;28;20044;-71
2022/09/14 00:15:53;;;;;;;3.00;0.20;;;17.10;99.90;;;;;;5026144;28;20033;-71
2022/09/14 00:18:19;;;;;;;2.35;0.15;;;17.10;99.90;;;;;;5026669;28;20037;-73
2022/09/14 00:20:44;;;;;;;6.68;0.30;;;17.00;99.90;;;;;;5025766;28;20030;-70
2022/09/14 00:23:10;;;;;;;6.93;0.60;;;17.00;99.90;;;;;;5024666;28;20107;-72
2022/09/14 00:25:35;;;;;;;5.80;0.47;;;17.00;99.90;;;;;;5029056;28;20051;-72
2022/09/14 00:28:01;;;;;;;2.72;0.30;;;17.00;99.90;;;;;;5033815;28;20029;-72
2022/09/14 00:30:27;;;;;;;1.85;0.30;;;17.00;99.90;;;;;;5032385;28;20053;-71
2022/09/14 00:32:53;;;;;;;3.22;0.50;;;16.90;99.90;;;;;;5028323;28;20037;-69
2022/09/14 00:35:18;;;;;;;3.20;0.45;;;16.90;99.90;;;;;;5025097;28;20037;-72
2022/09/14 00:37:47;;;;;;;4.00;0.63;;;16.90;99.90;;;;;;5026957;28;20033;-70
2022/09/14 00:40:12;;;;;;;3.03;0.35;;;16.90;99.90;;;;;;5025953;28;20668;-71
2022/09/14 00:42:38;;;;;;;3.92;0.70;;;16.90;99.90;;;;;;5025591;28;20048;-70
2022/09/14 00:45:13;;;;;;;0.90;0.20;;;16.90;99.90;;;;;;5025722;28;20052;-71
2022/09/14 00:47:38;;;;;;;4.43;0.30;;;16.90;99.90;;;;;;5026100;28;20033;-70
2022/09/14 00:50:05;;;;;;;4.95;0.28;;;17.00;99.90;;;;;;5025730;28;20099;-72
2022/09/14 00:52:33;;;;;;;8.10;0.90;;;16.90;99.90;;;;;;5025106;28;20448;-72
2022/09/14 00:55:11;;;;;;;5.22;0.35;;;16.90;99.90;;;;;;5020445;28;20037;-70
2022/09/14 00:57:41;;;;;;;3.20;0.52;;;16.90;99.90;;;;;;5023255;28;20067;-72
2022/09/14 01:00:09;;;;;;;;;;;16.90;99.90;;;;;;5026724;28;20068;-70
2022/09/14 01:02:36;;;;;;;1.17;0.22;;;16.80;99.90;;;;;;5024885;28;19924;-72
2022/09/14 01:05:02;;;;;;;1.55;0.40;;;16.90;99.90;;;;;;5025557;28;20033;-72
2022/09/14 01:07:43;;;;;;;6.93;0.63;;;16.80;99.90;;;;;;5025467;28;20032;-72
2022/09/14 01:10:34;;;;;;;2.33;0.10;;;16.90;99.90;;;;;;5023788;28;20041;-70
2022/09/14 01:13:15;;;;;;;0.93;0.13;;;16.90;99.90;;;;;;5016141;28;20054;-72
2022/09/14 01:16:02;;;;;;;3.58;0.20;;;16.80;99.90;;;;;;5017808;28;20041;-72
2022/09/14 01:18:43;;;;;;;2.17;0.30;;;16.80;99.90;;;;;;5021872;28;20037;-72
2022/09/14 01:21:14;;;;;;;3.42;0.57;;;16.80;99.90;;;;;;5023759;28;20072;-70
2022/09/14 01:24:11;;;;;;;3.97;0.63;;;16.80;99.90;;;;;;5025191;28;20268;-71
2022/09/14 01:27:08;;;;;;;2.20;0.32;;;16.80;99.90;;;;;;5023126;28;20135;-72
2022/09/14 01:29:46;;;;;;;2.45;0.10;;;16.80;99.90;;;;;;5011787;28;20124;-72
2022/09/14 01:32:20;;;;;;;4.80;0.40;;;16.80;99.90;;;;;;5025781;28;20064;-72
2022/09/14 01:34:53;;;;;;;1.35;0.30;;;16.80;99.90;;;;;;5025381;28;20061;-73
2022/09/14 01:37:26;;;;;;;4.00;0.28;;;16.80;99.90;;;;;;5028604;28;20092;-72
2022/09/14 01:39:58;;;;;;;2.92;0.25;;;16.80;99.90;;;;;;5032242;28;20025;-72
2022/09/14 01:42:26;;;;;;;7.90;1.33;;;16.80;99.90;;;;;;5032828;28;20021;-71
2022/09/14 01:45:00;;;;;;;1.35;0.10;;;16.80;99.90;;;;;;5034160;28;20030;-72
2022/09/14 01:47:45;;;;;;;3.92;0.63;;;16.70;99.90;;;;;;5031037;28;20037;-70
2022/09/14 01:50:40;;;;;;;3.08;0.47;;;16.70;99.90;;;;;;5029843;28;20057;-72
2022/09/14 01:53:12;;;;;;;2.20;0.10;;;16.80;99.90;;;;;;5022497;28;20041;-72
2022/09/14 01:55:47;;;;;;;3.78;0.30;;;16.80;99.90;;;;;;5031225;28;20521;-73
2022/09/14 01:58:27;;;;;;;2.45;0.17;;;16.80;99.90;;;;;;5026413;28;20053;-72
2022/09/14 02:00:55;;;;;;;0.80;0.15;;;16.70;99.90;;;;;;5025772;28;20485;-70
2022/09/14 02:03:26;;;;;;;6.28;0.20;;;16.70;99.90;;;;;;5024584;28;20061;-69
2022/09/14 02:06:16;;;;;;;2.85;0.15;;;16.70;99.90;;;;;;5024440;28;20056;-72
2022/09/14 02:08:41;;;;;;;2.30;0.30;;;16.70;99.90;;;;;;5023634;28;20526;-72
2022/09/14 02:11:07;;;;;;;2.75;0.20;;;16.70;99.90;;;;;;5024815;28;20552;-72
2022/09/14 02:13:33;;;;;;;3.03;0.40;;;16.70;99.90;;;;;;5024070;28;20067;-72
2022/09/14 02:15:58;;;;;;;4.60;0.28;;;16.70;99.90;;;;;;5024923;28;20034;-70
2022/09/14 02:18:24;;;;;;;6.60;1.00;;;16.60;99.90;;;;;;5024740;28;20044;-70
2022/09/14 02:21:00;;;;;;;4.00;0.95;;;16.70;99.90;;;;;;5025815;28;20029;-69
2022/09/14 02:23:26;;;;;;;2.75;0.28;;;16.70;99.90;;;;;;5020650;28;20128;-71
2022/09/14 02:25:52;;;;;;;1.75;0.80;;;16.70;99.90;;;;;;5021503;28;20076;-71
2022/09/14 02:28:18;;;;;;;3.17;0.35;;;16.70;99.90;;;;;;5025201;28;22266;-72
2022/09/14 02:31:02;;;;;;;1.65;0.28;;;16.70;99.90;;;;;;5024715;28;20033;-74
2022/09/14 02:33:39;;;;;;;8.75;0.63;;;16.70;99.90;;;;;;5019735;28;20045;-71
2022/09/14 02:36:15;;;;;;;1.67;0.25;;;16.70;99.90;;;;;;5014418;28;20037;-74
2022/09/14 02:38:55;;;;;;;3.28;0.63;;;16.70;99.90;;;;;;5022347;28;20026;-72
2022/09/14 02:41:44;;;;;;;4.00;0.25;;;16.70;99.90;;;;;;5020488;28;20045;-72
2022/09/14 02:44:51;;;;;;;4.60;0.50;;;16.70;99.90;;;;;;5022287;28;20095;-72
2022/09/14 02:47:25;;;;;;;5.13;0.22;;;16.70;99.90;;;;;;4989200;28;20041;-72
2022/09/14 02:50:17;;;;;;;1.75;0.30;;;16.70;99.90;;;;;;5021123;28;20022;-73
2022/09/14 02:52:51;;;;;;;1.65;0.10;;;16.70;99.90;;;;;;5023294;28;20030;-72
2022/09/14 02:55:22;;;;;;;3.65;0.30;;;16.70;99.90;;;;;;5023853;28;20041;-73
2022/09/14 02:58:07;;;;;;;3.10;0.40;;;16.70;99.90;;;;;;5024863;28;20033;-73
2022/09/14 03:00:40;;;;;;;2.97;0.40;;;16.70;99.90;;;;;;5021834;28;20048;-68
2022/09/14 03:03:07;;;;;;;3.95;0.15;;;16.70;99.90;;;;;;5023854;28;20029;-72
2022/09/14 03:05:34;;;;;;;5.35;0.35;;;16.60;99.90;;;;;;5023844;28;20458;-72
2022/09/14 03:08:01;;;;;;;1.48;0.15;;;16.60;99.90;;;;;;5024788;28;20064;-71
2022/09/14 03:10:27;;;;;;;1.50;0.25;;;16.60;99.90;;;;;;5020000;28;20029;-71
2022/09/14 03:12:53;;;;;;;8.27;0.43;;;16.60;99.90;;;;;;5024289;28;20056;-73
2022/09/14 03:15:19;;;;;;;1.83;0.40;;;16.60;99.90;;;;;;5026467;28;20090;-73
2022/09/14 03:17:46;;;;;;;3.67;0.47;;;16.60;99.90;;;;;;5035542;28;20030;-72
2022/09/14 03:20:23;;;;;;;5.40;0.82;;;16.50;99.90;;;;;;5032112;28;20081;-70
2022/09/14 03:22:48;;;;;;;3.65;0.88;;;16.50;99.90;;;;;;5029114;28;20655;-73
2022/09/14 03:25:14;;;;;;;2.55;1.10;;;16.40;99.90;;;;;;5035689;28;20067;-72
2022/09/14 03:27:40;;;;;;;1.55;0.38;;;16.40;99.90;;;;;;5036200;28;20025;-71
2022/09/14 03:30:07;;;;;;;3.65;0.20;;;16.40;99.90;;;;;;5031640;28;20033;-73
2022/09/14 03:32:33;;;;;;;2.75;0.63;;;16.40;99.90;;;;;;5027388;28;20049;-72
2022/09/14 03:34:59;;;;;;;4.10;0.32;;;16.40;99.90;;;;;;5027800;28;20037;-70
2022/09/14 03:37:25;;;;;;;2.38;0.20;;;16.30;99.90;;;;;;5025480;28;20493;-71
2022/09/14 03:39:51;;;;;;;1.92;0.13;;;16.40;99.90;;;;;;5027394;28;20038;-72
2022/09/14 03:42:17;;;;;;;4.47;0.20;;;16.30;99.90;;;;;;5022676;28;20044;-72
2022/09/14 03:44:42;;;;;;;1.85;0.25;;;16.30;99.90;;;;;;5026645;28;20029;-71
2022/09/14 03:47:08;;;;;;;2.63;0.30;;;16.30;99.90;;;;;;5027037;28;20034;-73
2022/09/14 03:49:34;;;;;;;4.22;0.38;;;16.30;99.90;;;;;;5027016;28;20057;-73
2022/09/14 03:52:00;;;;;;;4.05;0.40;;;16.20;99.90;;;;;;5026915;28;20120;-72
2022/09/14 03:54:27;;;;;;;3.45;0.52;;;16.10;99.90;;;;;;5025664;28;20099;-72
2022/09/14 03:56:53;;;;;;;1.83;0.30;;;16.00;99.90;;;;;;5026930;28;20037;-71
2022/09/14 03:59:19;;;;;;;1.02;0.10;;;16.00;99.90;;;;;;5027394;28;22173;-71
2022/09/14 04:01:44;;;;;;;4.75;0.20;;;16.00;99.90;;;;;;5026435;28;20379;-69
2022/09/14 04:04:10;;;;;;;3.30;0.25;;;16.00;99.90;;;;;;5025879;28;20036;-72
2022/09/14 04:06:36;;;;;;;6.15;0.20;;;16.00;99.90;;;;;;5027045;28;20076;-73
2022/09/14 04:09:02;;;;;;;0.95;0.20;;;16.00;99.90;;;;;;5027082;28;20788;-72
2022/09/14 04:11:32;;;;;;;5.35;0.65;;;16.00;99.90;;;;;;5026632;28;20029;-70
2022/09/14 04:14:02;;;;;;;;;;;16.00;99.90;;;;;;5027277;28;20041;-70
2022/09/14 04:16:28;;;;;;;1.90;0.55;;;16.00;99.90;;;;;;5026769;28;19971;-71
2022/09/14 04:18:54;;;;;;;1.75;0.40;;;16.00;99.90;;;;;;5027773;28;20112;-72
2022/09/14 04:21:22;;;;;;;2.97;0.85;;;16.00;99.90;;;;;;5026268;28;20097;-72
2022/09/14 04:23:51;;;;;;;1.88;0.20;;;16.00;99.90;;;;;;5025996;28;20029;-72
2022/09/14 04:26:21;;;;;;;4.47;0.40;;;16.00;99.90;;;;;;5022318;28;20029;-73
2022/09/14 04:28:47;;;;;;;2.33;1.23;;;16.00;99.90;;;;;;5019333;28;20025;-71
2022/09/14 04:31:13;;;;;;;5.50;1.00;;;16.00;99.90;;;;;;5024383;28;20950;-70
2022/09/14 04:33:41;;;;;;;1.50;0.20;;;16.10;99.90;;;;;;5025378;28;20889;-72
2022/09/14 04:36:16;;;;;;;2.58;0.30;;;16.10;99.90;;;;;;5029145;28;20038;-73
2022/09/14 04:38:42;;;;;;;1.27;0.20;;;16.10;99.90;;;;;;5029770;28;20616;-73
2022/09/14 04:41:11;;;;;;;1.38;0.40;;;16.00;99.90;;;;;;5032663;28;20041;-72
2022/09/14 04:43:37;;;;;;;2.63;0.28;;;16.00;99.90;;;;;;5027980;28;20033;-72
2022/09/14 04:46:14;;;;;;;3.55;0.30;;;16.00;99.90;;;;;;5025861;28;20045;-72
2022/09/14 04:48:40;;;;;;;4.90;0.70;;;16.00;99.90;;;;;;5026096;28;20032;-72
2022/09/14 04:51:22;;;;;;;3.83;0.25;;;16.10;99.90;;;;;;5025741;28;20030;-72
2022/09/14 04:53:50;;;;;;;0.73;0.20;;;16.10;99.90;;;;;;5024897;28;20513;-71
2022/09/14 04:56:17;;;;;;;2.65;0.22;;;16.10;99.90;;;;;;5020264;28;20568;-71
2022/09/14 04:58:45;;;;;;;2.42;0.40;;;16.10;99.90;;;;;;5023683;28;20041;-74
2022/09/14 05:01:13;;;;;;;2.63;0.50;;;16.10;99.90;;;;;;5030293;28;20030;-73
2022/09/14 05:03:39;;;;;;;4.43;0.43;;;16.10;99.90;;;;;;5032855;28;20033;-71
2022/09/14 05:06:10;;;;;;;6.18;0.50;;;16.10;99.90;;;;;;5034967;28;20374;-72
2022/09/14 05:08:37;;;;;;;3.75;0.20;;;16.00;99.90;;;;;;5024379;28;20511;-70
2022/09/14 05:11:05;;;;;;;1.42;0.30;;;16.10;99.90;;;;;;5025483;28;20064;-70
2022/09/14 05:13:31;;;;;;;1.45;0.20;;;16.10;99.90;;;;;;5025102;28;20041;-71
2022/09/14 05:16:13;;;;;;;2.85;0.50;;;16.10;99.90;;;;;;5015393;28;20111;-74
2022/09/14 05:18:39;;;;;;;6.38;0.45;;;16.10;99.90;;;;;;5019582;28;20030;-71
2022/09/14 05:21:07;;;;;;;3.05;0.17;;;16.10;99.90;;;;;;5016340;28;20036;-72
2022/09/14 05:23:33;;;;;;;1.20;0.20;;;16.10;99.90;;;;;;5017699;28;20088;-71
2022/09/14 05:26:02;;;;;;;1.80;0.30;;;16.10;99.90;;;;;;5019341;28;20585;-72
2022/09/14 05:28:28;;;;;;;2.80;0.35;;;16.10;99.90;;;;;;5018097;28;20071;-72
2022/09/14 05:30:54;;;;;;;1.08;0.20;;;16.00;99.90;;;;;;5017240;28;20033;-71
2022/09/14 05:33:21;;;;;;;0.93;0.50;;;16.10;99.90;;;;;;5017134;28;20041;-72
2022/09/14 05:35:47;;;;;;;4.05;0.30;;;16.10;99.90;;;;;;5018064;28;20312;-71
2022/09/14 05:38:13;;;;;;;3.17;0.35;;;16.00;99.90;;;;;;5016058;28;20036;-72
2022/09/14 05:40:39;;;;;;;1.58;0.32;;;16.10;99.90;;;;;;5018384;28;20041;-73
2022/09/14 05:43:04;;;;;;;1.75;0.32;;;16.10;99.90;;;;;;5013920;28;20047;-72
2022/09/14 05:45:30;;;;;;;1.83;0.20;;;16.10;99.90;;;;;;5014126;28;20148;-72
2022/09/14 05:48:00;;;;;;;1.88;0.30;;;16.10;99.90;;;;;;5016781;28;20052;-72
2022/09/14 05:50:26;;;;;;;1.67;0.25;;;16.10;99.90;;;;;;5015349;28;20033;-72
2022/09/14 05:52:52;;;;;;;3.88;0.40;;;16.10;99.90;;;;;;5016584;28;20156;-71
2022/09/14 05:55:17;;;;;;;3.35;0.40;;;16.10;99.90;;;;;;5019372;28;20033;-70
2022/09/14 05:57:48;;;;;;;4.45;0.30;;;16.00;99.90;;;;;;5016243;28;20045;-71
2022/09/14 06:00:14;;;;;;;1.13;0.32;;;16.10;99.90;;;;;;5018236;28;20152;-71
2022/09/14 06:02:48;;;;;;;6.38;0.73;;;16.00;99.90;;;;;;5023803;28;20517;-72
2022/09/14 06:05:14;;;;;;;1.88;0.22;;;16.10;99.90;;;;;;5019197;28;20057;-72
2022/09/14 06:07:39;;;;;;;1.23;0.30;;;16.00;99.90;;;;;;5014982;28;20065;-72
2022/09/14 06:10:06;;;;;;;4.60;0.95;;;16.10;99.90;;;;;;5015057;28;20456;-71
2022/09/14 06:12:31;;;;;;;2.25;0.52;;;16.10;99.90;;;;;;5018461;28;20770;-72
2022/09/14 06:14:57;;;;;;;6.43;0.77;;;16.10;99.90;;;;;;5014272;28;20044;-72
2022/09/14 06:17:23;;;;;;;4.68;0.68;;;16.10;99.90;;;;;;5013366;28;20061;-72
2022/09/14 06:19:48;;;;;;;2.60;0.30;;;16.10;99.90;;;;;;5014709;28;20041;-71
2022/09/14 06:22:14;;;;;;;2.70;0.45;;;16.20;99.90;;;;;;5018297;28;20060;-73
2022/09/14 06:24:39;;;;;;;4.50;0.70;;;16.10;99.90;;;;;;5019755;28;20057;-72
2022/09/14 06:27:07;;;;;;;5.95;0.63;;;16.10;99.90;;;;;;5015268;28;20494;-69
2022/09/14 06:29:34;;;;;;;5.70;0.50;;;16.20;99.90;;;;;;5016780;28;20040;-71
2022/09/14 06:31:59;;;;;;;7.28;0.60;;;16.20;99.90;;;;;;5014642;28;20053;-70
2022/09/14 06:34:25;;;;;;;2.17;0.40;;;16.30;99.90;;;;;;5012661;28;20038;-70
2022/09/14 06:36:51;;;;;;;3.15;0.30;;;16.20;99.90;;;;;;5018082;28;20037;-71
2022/09/14 06:39:16;;;;;;;4.22;0.47;;;16.30;99.90;;;;;;5017377;28;20193;-69
2022/09/14 06:41:42;;;;;;;2.50;0.60;;;16.30;99.90;;;;;;5024361;28;20091;-71
2022/09/14 06:44:08;;;;;;;3.72;0.60;;;16.30;99.90;;;;;;5020840;28;20026;-72
2022/09/14 06:46:34;;;;;;;1.90;0.30;;;16.30;99.90;;;;;;5022867;28;20060;-73
2022/09/14 06:49:12;;;;;;;4.65;0.43;;;16.30;99.90;;;;;;5017482;28;20089;-71
2022/09/14 06:51:40;;;;;;;7.30;0.52;;;16.20;99.90;;;;;;5019123;28;20048;-72
2022/09/14 06:54:07;;;;;;;3.00;0.50;;;16.20;99.90;;;;;;5021638;28;20029;-70
2022/09/14 06:56:35;;;;;;;2.97;0.43;;;16.20;99.90;;;;;;5018371;28;20543;-71
2022/09/14 06:59:01;;;;;;;2.63;0.60;;;16.20;99.90;;;;;;5020530;28;20046;-71
2022/09/14 07:01:28;;;;;;;1.77;0.70;;;16.20;99.90;;;;;;5019637;28;20618;-71
2022/09/14 07:03:54;;;;;;;1.85;0.52;;;16.20;99.90;;;;;;5020210;28;20033;-71
2022/09/14 07:06:23;;;;;;;4.80;0.47;;;16.20;99.90;;;;;;5015209;28;20029;-72
2022/09/14 07:08:49;;;;;;;3.13;0.40;;;16.30;99.90;;;;;;5019723;28;20076;-72
2022/09/14 07:11:17;;;;;;;2.60;0.50;;;16.30;99.90;;;;;;5019325;28;20036;-72
2022/09/14 07:13:44;;;;;;;5.63;0.60;;;16.30;99.90;;;;;;5019563;28;20066;-73
2022/09/14 07:16:10;;;;;;;4.10;0.75;;;16.30;99.90;;;;;;5019082;28;20037;-70
2022/09/14 07:18:37;;;;;;;4.47;0.40;;;16.40;99.90;;;;;;5018467;28;20029;-72
2022/09/14 07:21:09;;;;;;;4.65;0.70;;;16.40;99.90;;;;;;5016954;28;20445;-72
2022/09/14 07:23:36;;;;;;;3.50;0.50;;;16.40;99.90;;;;;;5018825;28;20030;-72
2022/09/14 07:26:04;;;;;;;2.15;0.30;;;16.40;99.90;;;;;;5026496;28;20035;-73
2022/09/14 07:28:30;;;;;;;2.75;0.32;;;16.40;99.90;;;;;;5028334;28;20120;-73
2022/09/14 07:30:56;;;;;;;2.47;0.43;;;16.40;99.90;;;;;;5022191;28;20030;-71
2022/09/14 07:33:21;;;;;;;3.88;0.40;;;16.40;99.90;;;;;;5020510;28;20482;-72
2022/09/14 07:35:47;;;;;;;4.93;0.50;;;16.40;99.90;;;;;;5017917;28;20572;-72
2022/09/14 07:38:12;;;;;;;1.30;0.60;;;16.40;99.90;;;;;;5013093;28;20037;-73
2022/09/14 07:40:38;;;;;;;2.95;0.40;;;16.50;99.90;;;;;;5017862;28;20048;-71
2022/09/14 07:43:05;;;;;;;2.53;0.30;;;16.60;99.90;;;;;;5017345;28;20026;-72
2022/09/14 07:45:31;;;;;;;1.27;0.28;;;16.60;99.90;;;;;;5018329;28;20173;-72
2022/09/14 07:47:56;;;;;;;2.05;0.45;;;16.70;99.90;;;;;;5017626;28;20116;-73
2022/09/14 07:50:22;;;;;;;3.72;0.60;;;16.70;99.90;;;;;;5015062;28;20041;-70
2022/09/14 07:52:51;;;;;;;5.40;0.35;;;16.70;99.90;;;;;;5019370;28;20503;-72
2022/09/14 07:55:17;;;;;;;2.15;0.40;;;16.80;99.90;;;;;;5017114;28;20390;-73
2022/09/14 07:57:43;;;;;;;4.50;0.57;;;16.80;99.90;;;;;;5019430;28;20064;-71
2022/09/14 08:00:09;;;;;;;1.40;0.30;;;16.80;99.90;;;;;;5020296;28;20041;-72
2022/09/14 08:02:35;;;;;;;3.83;0.50;;;16.80;99.90;;;;;;5014513;28;21801;-70
2022/09/14 08:05:01;;;;;;;5.20;0.50;;;16.80;99.90;;;;;;5018505;28;20037;-71
2022/09/14 08:07:26;;;;;;;2.65;0.50;;;16.90;99.90;;;;;;5017260;28;20045;-73
2022/09/14 08:09:52;;;;;;;4.78;0.43;;;16.90;99.90;;;;;;5020770;28;20080;-73
2022/09/14 08:12:18;;;;;;;0.68;0.13;;;16.90;99.90;;;;;;5022077;28;20045;-73
2022/09/14 08:14:43;;;;;;;1.95;0.25;;;17.00;99.90;;;;;;5019337;28;20045;-72
2022/09/14 08:17:09;;;;;;;4.68;0.30;;;17.00;99.90;;;;;;5016995;28;20033;-72
2022/09/14 08:19:36;;;;;;;2.47;0.20;;;17.10;99.90;;;;;;5020559;28;20091;-72
2022/09/14 08:22:02;;;;;;;3.58;0.75;;;17.10;99.90;;;;;;5018973;28;20128;-72
2022/09/14 08:24:28;;;;;;;1.80;0.30;;;17.10;99.90;;;;;;5017739;28;20037;-73
2022/09/14 08:26:54;;;;;;;6.90;0.40;;;17.10;99.90;;;;;;5012096;28;20095;-73
2022/09/14 08:29:20;;;;;;;3.55;0.25;;;17.10;99.90;;;;;;5018483;28;20090;-69
2022/09/14 08:31:46;;;;;;;6.95;0.52;;;17.10;99.90;;;;;;5028977;28;20033;-73
2022/09/14 08:34:14;;;;;;;0.82;0.20;;;17.10;99.90;;;;;;5029345;28;20042;-73
2022/09/14 08:36:41;;;;;;;2.25;0.20;;;17.20;99.90;;;;;;5026510;28;20080;-73
2022/09/14 08:39:09;;;;;;;1.73;0.22;;;17.20;99.90;;;;;;5013146;28;20034;-72
2022/09/14 08:41:53;;;;;;;0.90;0.10;;;17.20;99.90;;;;;;5015468;28;20053;-69
2022/09/14 08:44:29;;;;;;;3.50;0.40;;;17.30;99.90;;;;;;5017160;28;20047;-72
2022/09/14 08:47:13;;;;;;;2.40;0.30;;;17.20;99.90;;;;;;5019243;28;20045;-73
2022/09/14 08:49:50;;;;;;;2.65;0.20;;;17.30;99.90;;;;;;5023509;28;20037;-72
2022/09/14 08:52:34;;;;;;;5.13;0.40;;;17.30;99.90;;;;;;5022505;28;20033;-71
2022/09/14 08:55:21;;;;;;;1.27;0.35;;;17.30;99.90;;;;;;5027603;28;20046;-72
2022/09/14 08:58:20;;;;;;;2.28;0.25;;;17.30;99.90;;;;;;5022608;28;20774;-73
2022/09/14 09:01:07;;;;;;;3.95;0.50;;;17.20;99.90;;;;;;5018044;28;20046;-71
2022/09/14 09:03:46;;;;;;;1.33;0.38;;;17.20;99.90;;;;;;5017518;28;20569;-72
2022/09/14 09:06:53;;;;;;;1.33;0.20;;;17.20;99.90;;;;;;5016081;28;20039;-71
2022/09/14 09:09:21;;;;;;;1.92;0.20;;;17.30;99.90;;;;;;5016461;28;20107;-73
2022/09/14 09:11:50;;;;;;;1.60;0.20;;;17.30;99.90;;;;;;5020652;28;20516;-72
2022/09/14 09:14:40;;;;;;;3.13;0.50;;;17.30;99.90;;;;;;5017324;28;20041;-70
2022/09/14 09:17:11;;;;;;;;;;;17.40;99.90;;;;;;5016961;28;20033;-70
2022/09/14 09:19:48;;;;;;;1.20;0.20;;;17.50;99.90;;;;;;5017318;28;20305;-69
2022/09/14 09:22:18;;;;;;;3.45;0.40;;;17.50;99.90;;;;;;5017723;28;20064;-70
2022/09/14 09:24:49;;;;;;;;;;;17.50;99.90;;;;;;5019835;28;20045;-71
2022/09/14 09:27:15;;;;;;;0.98;0.20;;;17.60;99.90;;;;;;5016120;28;19917;-72
2022/09/14 09:29:42;;;;;;;2.40;0.30;;;17.70;99.90;;;;;;5019496;28;20803;-72
2022/09/14 09:32:21;;;;;;;3.88;0.95;;;17.70;99.90;;;;;;5019420;28;20057;-70
2022/09/14 09:34:46;;;;;;;2.00;0.30;;;17.70;99.90;;;;;;5018134;28;20130;-72
2022/09/14 09:37:15;;;;;;;6.20;0.65;;;17.70;99.90;;;;;;5016510;28;20033;-70
2022/09/14 09:39:41;;;;;;;3.10;0.20;;;17.80;99.90;;;;;;5014763;28;20159;-71
2022/09/14 09:42:14;;;;;;;2.58;0.47;;;17.80;99.90;;;;;;5013925;28;20037;-69
2022/09/14 09:45:07;;;;;;;3.00;0.45;;;17.80;99.90;;;;;;5018160;28;20049;-69
2022/09/14 09:47:41;;;;;;;4.47;0.47;;;17.70;99.90;;;;;;5013958;28;20041;-71
2022/09/14 09:50:12;;;;;;;2.42;0.60;;;17.70;99.90;;;;;;5019947;28;20639;-72
2022/09/14 09:52:47;;;;;;;3.28;0.32;;;17.70;99.90;;;;;;5016818;28;20080;-70
2022/09/14 09:55:21;;;;;;;1.85;0.45;;;17.70;99.90;;;;;;5018426;28;20125;-73
2022/09/14 09:57:47;;;;;;;2.00;0.35;;;17.60;99.90;;;;;;5015844;28;20065;-72
2022/09/14 10:00:28;;;;;;;1.73;0.70;;;17.60;99.90;;;;;;5018407;28;20453;-72
2022/09/14 10:02:55;;;;;;;2.45;0.30;;;17.60;99.90;;;;;;5017002;28;20040;-73
2022/09/14 10:05:24;;;;;;;7.35;0.63;;;17.60;99.90;;;;;;5016554;28;20041;-72
2022/09/14 10:07:54;;;;;;;3.15;0.38;;;17.60;99.90;;;;;;5019851;28;20103;-73
2022/09/14 10:10:25;;;;;;;2.85;0.57;;;17.60;99.90;;;;;;5019465;28;20037;-73
2022/09/14 10:12:54;;;;;;;6.30;0.60;;;17.60;99.90;;;;;;5018404;28;20036;-70
2022/09/14 10:15:31;;;;;;;3.92;0.55;;;17.60;99.90;;;;;;5012123;28;20515;-73
2022/09/14 10:18:12;;;;;;;2.67;0.90;;;17.60;99.90;;;;;;5022011;28;20029;-73
2022/09/14 10:20:52;;;;;;;6.20;0.60;;;17.60;99.90;;;;;;5028277;28;20045;-70
2022/09/14 10:23:18;;;;;;;;;;;17.70;99.90;;;;;;5027562;28;20041;-74
2022/09/14 10:25:45;;;;;;;5.88;1.33;;;17.70;99.90;;;;;;5019974;28;19924;-71
2022/09/14 10:28:27;;;;;;;4.45;0.30;;;17.70;99.90;;;;;;5027776;28;20131;-71
2022/09/14 10:31:03;;;;;;;3.83;0.22;;;17.70;99.90;;;;;;5035238;28;20140;-72
2022/09/14 10:33:29;;;;;;;4.55;0.98;;;17.70;99.90;;;;;;5031782;28;20122;-71
2022/09/14 10:36:28;;;;;;;3.63;0.40;;;17.70;99.90;;;;;;5035684;28;20068;-73
2022/09/14 10:39:03;;;;;;;4.22;0.50;;;17.80;99.90;;;;;;5026751;28;20029;-71
2022/09/14 10:41:51;;;;;;;3.95;0.65;;;17.80;99.90;;;;;;5022561;28;20069;-72
2022/09/14 10:44:31;;;;;;;6.32;0.55;;;17.80;99.90;;;;;;5028278;28;20087;-73
2022/09/14 10:47:13;;;;;;;3.25;0.68;;;17.80;99.90;;;;;;5025765;28;20037;-72
2022/09/14 10:50:03;;;;;;;2.72;0.40;;;17.90;99.90;;;;;;5026807;28;20477;-71
2022/09/14 10:52:59;;;;;;;7.65;1.77;;;17.90;99.90;;;;;;5027171;28;20046;-73
2022/09/14 10:55:30;;;;;;;2.45;0.35;;;18.00;99.90;;;;;;5024247;28;20060;-72
2022/09/14 10:58:11;;;;;;;2.60;0.50;;;18.00;99.90;;;;;;5025923;28;20033;-73
2022/09/14 11:01:16;;;;;;;2.88;1.00;;;18.10;99.90;;;;;;5026255;28;20091;-73
2022/09/14 11:04:23;;;;;;;4.20;0.60;;;18.10;99.90;;;;;;5006419;28;20060;-72
2022/09/14 11:07:00;;;;;;;5.63;0.88;;;18.10;99.90;;;;;;5011548;28;20041;-72
2022/09/14 11:09:47;;;;;;;1.45;0.30;;;18.10;99.90;;;;;;5023846;28;20528;-73
2022/09/14 11:12:44;;;;;;;2.47;0.40;;;18.10;99.90;;;;;;5027408;28;20516;-71
2022/09/14 11:15:09;;;;;;;3.03;0.40;;;18.10;99.90;;;;;;5026422;28;20034;-72
2022/09/14 11:17:41;;;;;;;2.53;0.50;;;18.20;99.90;;;;;;5028187;28;20087;-69
2022/09/14 11:20:14;;;;;;;1.67;0.50;;;18.20;99.90;;;;;;5028156;28;20583;-69
2022/09/14 11:22:59;;;;;;;4.93;0.40;;;18.20;99.90;;;;;;5027951;28;20030;-74
2022/09/14 11:25:46;;;;;;;3.20;0.40;;;18.30;99.90;;;;;;5022601;28;20038;-70
2022/09/14 11:28:29;;;;;;;2.50;0.40;;;18.30;99.90;;;;;;5027022;28;20030;-73
2022/09/14 11:31:37;;;;;;;3.20;0.57;;;18.30;99.90;;;;;;5024570;28;20042;-71
2022/09/14 11:34:34;;;;;;;2.42;0.40;;;18.40;99.90;;;;;;5024524;28;20037;-72
2022/09/14 11:37:13;;;;;;;0.55;0.22;;;18.30;99.90;;;;;;5019514;28;20040;-72
2022/09/14 11:40:03;;;;;;;1.23;0.40;;;18.40;99.90;;;;;;5027034;28;20045;-72
2022/09/14 11:42:41;;;;;;;3.53;0.30;;;18.40;99.90;;;;;;5012927;28;20045;-72
2022/09/14 11:45:17;;;;;;;5.18;0.50;;;18.40;99.90;;;;;;5032227;28;20060;-69
2022/09/14 11:47:53;;;;;;;5.00;0.63;;;18.40;99.90;;;;;;5033036;28;20780;-71
2022/09/14 11:50:24;;;;;;;3.05;0.40;;;18.40;99.90;;;;;;5032811;28;20036;-71
2022/09/14 11:53:00;;;;;;;3.05;0.60;;;18.40;99.90;;;;;;5024265;28;20033;-73
2022/09/14 11:55:26;;;;;;;3.25;0.63;;;18.40;99.90;;;;;;5023055;28;20413;-72
2022/09/14 11:57:52;;;;;;;1.17;0.50;;;18.40;99.90;;;;;;5027509;28;20037;-73
2022/09/14 12:00:22;;;;;;;4.82;0.68;;;18.40;99.90;;;;;;5027846;28;20029;-73
2022/09/14 12:03:14;;;;;;;2.75;0.45;;;18.50;99.90;;;;;;5026584;28;20045;-72
2022/09/14 12:05:43;;;;;;;1.83;0.30;;;18.50;99.90;;;;;;5019128;28;20045;-69
2022/09/14 12:08:24;;;;;;;2.03;0.40;;;18.60;99.90;;;;;;5018816;28;20034;-70
2022/09/14 12:11:16;;;;;;;3.30;0.88;;;18.70;99.90;;;;;;5021929;28;20037;-72
2022/09/14 12:13:41;;;;;;;2.75;0.52;;;18.80;99.90;;;;;;5018046;28;20069;-69
2022/09/14 12:16:08;;;;;;;3.08;0.40;;;18.80;99.90;;;;;;5022176;28;20034;-72
2022/09/14 12:18:38;;;;;;;4.43;0.40;;;18.80;99.90;;;;;;5023948;28;20042;-72
2022/09/14 12:21:24;;;;;;;5.85;1.20;;;18.80;99.90;;;;;;5023572;28;20577;-72
2022/09/14 12:23:55;;;;;;;2.22;0.60;;;18.90;99.90;;;;;;5023334;28;20041;-71
2022/09/14 12:26:31;;;;;;;8.18;0.75;;;18.80;99.90;;;;;;5018095;28;20042;-71
2022/09/14 12:29:18;;;;;;;3.00;0.85;;;18.80;99.90;;;;;;5023838;28;20951;-72
2022/09/14 12:31:46;;;;;;;1.55;0.50;;;18.80;99.90;;;;;;5022780;28;20060;-70
2022/09/14 12:34:40;;;;;;;4.20;0.45;;;18.80;99.90;;;;;;5019040;28;20042;-70
2022/09/14 12:37:28;;;;;;;5.40;0.77;;;18.90;99.90;;;;;;5010516;28;20068;-72
2022/09/14 12:40:22;;;;;;;5.38;0.60;;;19.00;99.90;;;;;;5022024;28;20029;-72
2022/09/14 12:42:48;;;;;;;2.90;0.70;;;19.20;99.90;;;;;;5022192;28;20025;-72
2022/09/14 12:45:52;;;;;;;4.32;0.40;;;19.40;99.90;;;;;;5020891;28;20076;-68
2022/09/14 12:51:27;;;;;;;4.43;0.68;;;19.50;99.90;;;;;;5019279;28;20037;-68
2022/09/14 12:54:04;;;;;;;1.60;0.57;;;19.50;99.90;;;;;;5008857;28;20085;-71
2022/09/14 12:56:39;;;;;;;3.45;0.60;;;19.50;99.90;;;;;;5020132;28;20048;-68
2022/09/14 12:59:09;;;;;;;4.80;0.63;;;19.50;99.90;;;;;;5016180;28;20042;-72
2022/09/14 13:02:13;;;;;;;2.90;0.70;;;19.50;99.90;;;;;;5018952;28;20402;-72
2022/09/14 13:04:44;;;;;;;2.70;0.63;;;19.60;99.90;;;;;;4962010;28;20045;-72
2022/09/14 13:07:15;;;;;;;3.65;1.00;;;19.60;99.90;;;;;;4981823;28;20038;-69
2022/09/14 13:09:52;;;;;;;6.55;1.10;;;19.60;99.90;;;;;;4980598;28;20620;-68
2022/09/14 13:12:37;;;;;;;3.72;0.50;;;19.70;99.90;;;;;;4981767;28;20200;-71
2022/09/14 13:15:06;;;;;;;5.95;0.82;;;19.70;99.90;;;;;;4996865;28;20706;-69
2022/09/14 13:17:31;;;;;;;3.63;0.30;;;19.90;99.90;;;;;;5016361;28;20502;-71